createdAt,value
2018-10-06T00:00:19.923Z,21.40
2018-10-06T00:00:57.303Z,21.30
2018-10-06T00:01:34.682Z,21.40
2018-10-06T00:02:12.036Z,21.40
2018-10-06T00:02:49.443Z,21.40
2018-10-06T00:03:26.699Z,21.40
2018-10-06T00:04:03.903Z,21.40
2018-10-06T00:04:41.314Z,21.40
2018-10-06T00:05:18.534Z,21.40
2018-10-06T00:05:55.848Z,21.40
2018-10-06T00:06:33.245Z,21.40
2018-10-06T00:07:10.474Z,21.40
2018-10-06T00:07:47.760Z,21.40
2018-10-06T00:08:25.236Z,21.40
2018-10-06T00:09:02.670Z,21.30
2018-10-06T00:09:40.350Z,21.40
2018-10-06T00:10:17.800Z,21.40
2018-10-06T00:10:55.134Z,21.40
2018-10-06T00:11:32.484Z,21.30
2018-10-06T00:12:09.986Z,21.40
2018-10-06T00:12:47.458Z,21.40
2018-10-06T00:13:25.062Z,21.40
2018-10-06T00:14:02.596Z,21.40
2018-10-06T00:14:40.025Z,21.30
2018-10-06T00:15:17.397Z,21.30
2018-10-06T00:15:54.573Z,21.40
2018-10-06T00:16:31.911Z,21.30
2018-10-06T00:17:09.377Z,21.30
2018-10-06T00:17:46.841Z,21.40
2018-10-06T00:18:24.258Z,21.30
2018-10-06T00:19:01.659Z,21.40
2018-10-06T00:19:39.051Z,21.40
2018-10-06T00:20:16.572Z,21.30
2018-10-06T00:20:54.020Z,21.40
2018-10-06T00:21:31.428Z,21.40
2018-10-06T00:22:08.819Z,21.30
2018-10-06T00:22:46.294Z,21.30
2018-10-06T00:23:23.831Z,21.40
2018-10-06T00:24:01.168Z,21.40
2018-10-06T00:24:38.740Z,21.30
2018-10-06T00:25:16.249Z,21.30
2018-10-06T00:25:53.713Z,21.40
2018-10-06T00:26:30.909Z,21.30
2018-10-06T00:27:08.498Z,21.30
2018-10-06T00:27:45.840Z,21.30
2018-10-06T00:28:23.058Z,21.40
2018-10-06T00:29:00.432Z,21.30
2018-10-06T00:29:37.941Z,21.40
2018-10-06T00:30:15.324Z,21.30
2018-10-06T00:30:52.730Z,21.40
2018-10-06T00:31:31.166Z,21.30
2018-10-06T00:32:08.461Z,21.30
2018-10-06T00:32:45.788Z,21.40
2018-10-06T00:33:23.004Z,21.30
2018-10-06T00:34:00.447Z,21.30
2018-10-06T00:34:37.721Z,21.30
2018-10-06T00:35:15.123Z,21.30
2018-10-06T00:35:52.374Z,21.30
2018-10-06T00:36:29.710Z,21.30
2018-10-06T00:37:08.018Z,21.30
2018-10-06T00:37:45.239Z,21.40
2018-10-06T00:38:22.647Z,21.40
2018-10-06T00:39:00.085Z,21.30
2018-10-06T00:39:37.339Z,21.30
2018-10-06T00:40:14.784Z,21.30
2018-10-06T00:40:52.263Z,21.30
2018-10-06T00:41:29.615Z,21.30
2018-10-06T00:42:06.803Z,21.30
2018-10-06T00:42:44.082Z,21.30
2018-10-06T00:43:21.636Z,21.30
2018-10-06T00:43:58.927Z,21.30
2018-10-06T00:44:36.303Z,21.30
2018-10-06T00:45:13.473Z,21.40
2018-10-06T00:45:50.662Z,21.30
2018-10-06T00:46:28.054Z,21.30
2018-10-06T00:47:05.331Z,21.30
2018-10-06T00:47:42.833Z,21.30
2018-10-06T00:48:20.324Z,21.30
2018-10-06T00:48:57.714Z,21.30
2018-10-06T00:49:35.103Z,21.30
2018-10-06T00:50:12.355Z,21.30
2018-10-06T00:50:49.766Z,21.30
2018-10-06T00:51:27.014Z,21.10
2018-10-06T00:52:04.373Z,21.30
2018-10-06T00:52:41.891Z,21.30
2018-10-06T00:53:22.964Z,21.30
2018-10-06T00:54:00.397Z,21.30
2018-10-06T00:54:37.762Z,21.30
2018-10-06T00:55:15.134Z,21.30
2018-10-06T00:55:52.531Z,21.30
2018-10-06T00:56:30.076Z,21.30
2018-10-06T00:57:07.463Z,20.80
2018-10-06T00:57:44.780Z,21.30
2018-10-06T00:58:22.332Z,21.30
2018-10-06T00:58:59.907Z,21.30
2018-10-06T00:59:37.265Z,21.30
2018-10-06T01:00:14.753Z,21.30
2018-10-06T01:00:52.189Z,21.30
2018-10-06T01:01:29.518Z,21.30
2018-10-06T01:02:06.904Z,21.30
2018-10-06T01:02:44.227Z,21.30
2018-10-06T01:03:21.730Z,21.30
2018-10-06T01:03:59.150Z,21.30
2018-10-06T01:04:36.582Z,21.30
2018-10-06T01:05:14.125Z,21.30
2018-10-06T01:05:51.553Z,21.30
2018-10-06T01:06:28.707Z,21.30
2018-10-06T01:07:06.026Z,21.30
2018-10-06T01:07:43.288Z,21.30
2018-10-06T01:08:20.655Z,21.30
2018-10-06T01:08:57.990Z,21.30
2018-10-06T01:09:35.419Z,21.30
2018-10-06T01:10:12.644Z,21.30
2018-10-06T01:10:49.868Z,21.30
2018-10-06T01:11:27.249Z,21.30
2018-10-06T01:12:04.701Z,21.30
2018-10-06T01:12:45.327Z,21.30
2018-10-06T01:13:22.797Z,21.30
2018-10-06T01:14:00.296Z,21.30
2018-10-06T01:14:37.665Z,21.30
2018-10-06T01:15:15.086Z,21.30
2018-10-06T01:15:52.349Z,21.40
2018-10-06T01:16:29.815Z,21.30
2018-10-06T01:17:07.265Z,21.30
2018-10-06T01:17:44.654Z,21.30
2018-10-06T01:18:21.873Z,21.30
2018-10-06T01:18:59.173Z,21.30
2018-10-06T01:19:36.532Z,21.30
2018-10-06T01:20:56.612Z,21.30
2018-10-06T01:21:33.986Z,21.30
2018-10-06T01:22:11.422Z,21.30
2018-10-06T01:22:48.941Z,21.30
2018-10-06T01:23:26.221Z,21.30
2018-10-06T01:24:03.511Z,21.30
2018-10-06T01:24:40.791Z,21.30
2018-10-06T01:25:17.996Z,21.30
2018-10-06T01:25:55.222Z,21.30
2018-10-06T01:26:32.683Z,21.30
2018-10-06T01:27:10.172Z,21.30
2018-10-06T01:27:47.474Z,21.30
2018-10-06T01:28:24.763Z,21.30
2018-10-06T01:29:02.181Z,21.30
2018-10-06T01:29:39.679Z,21.30
2018-10-06T01:30:17.128Z,21.30
2018-10-06T01:30:54.558Z,21.30
2018-10-06T01:31:31.818Z,21.30
2018-10-06T01:32:09.089Z,21.30
2018-10-06T01:32:46.470Z,21.30
2018-10-06T01:33:23.640Z,21.30
2018-10-06T01:34:00.872Z,21.30
2018-10-06T01:34:38.408Z,21.30
2018-10-06T01:35:15.727Z,21.30
2018-10-06T01:35:53.242Z,21.30
2018-10-06T01:36:30.756Z,21.30
2018-10-06T01:37:08.127Z,21.30
2018-10-06T01:37:45.496Z,21.30
2018-10-06T01:38:22.976Z,21.30
2018-10-06T01:39:00.547Z,21.30
2018-10-06T01:39:38.016Z,21.30
2018-10-06T01:40:15.503Z,21.30
2018-10-06T01:40:52.978Z,21.30
2018-10-06T01:41:30.345Z,21.30
2018-10-06T01:42:07.753Z,21.30
2018-10-06T01:42:45.028Z,21.30
2018-10-06T01:43:22.425Z,21.30
2018-10-06T01:43:59.811Z,21.30
2018-10-06T01:44:37.333Z,21.30
2018-10-06T01:45:14.723Z,21.30
2018-10-06T01:45:52.109Z,21.30
2018-10-06T01:46:29.250Z,21.30
2018-10-06T01:47:06.535Z,21.30
2018-10-06T01:47:44.514Z,21.30
2018-10-06T01:48:21.943Z,21.30
2018-10-06T01:48:59.473Z,21.30
2018-10-06T01:49:37.084Z,21.30
2018-10-06T01:50:14.348Z,21.30
2018-10-06T01:50:51.701Z,21.30
2018-10-06T01:51:29.031Z,21.30
2018-10-06T01:52:06.471Z,21.30
2018-10-06T01:52:43.925Z,21.30
2018-10-06T01:53:21.329Z,21.30
2018-10-06T01:53:58.484Z,21.30
2018-10-06T01:54:35.912Z,21.30
2018-10-06T01:55:13.120Z,21.30
2018-10-06T01:55:50.619Z,21.30
2018-10-06T01:56:27.892Z,21.30
2018-10-06T01:57:05.336Z,21.30
2018-10-06T01:57:42.840Z,21.30
2018-10-06T01:58:20.236Z,21.30
2018-10-06T01:58:57.610Z,21.30
2018-10-06T01:59:34.922Z,21.30
2018-10-06T02:00:12.269Z,21.30
2018-10-06T02:00:49.629Z,21.30
2018-10-06T02:01:26.908Z,21.30
2018-10-06T02:02:04.258Z,21.30
2018-10-06T02:02:41.670Z,21.30
2018-10-06T02:04:00.887Z,21.30
2018-10-06T02:04:38.276Z,21.30
2018-10-06T02:05:15.497Z,21.30
2018-10-06T02:05:52.737Z,21.30
2018-10-06T02:06:30.257Z,21.30
2018-10-06T02:07:07.752Z,21.30
2018-10-06T02:07:45.206Z,21.30
2018-10-06T02:08:22.804Z,21.30
2018-10-06T02:09:03.758Z,21.30
2018-10-06T02:09:41.046Z,21.30
2018-10-06T02:10:18.499Z,21.30
2018-10-06T02:10:56.027Z,21.30
2018-10-06T02:11:33.449Z,21.30
2018-10-06T02:12:10.900Z,21.30
2018-10-06T02:12:48.240Z,21.30
2018-10-06T02:13:25.667Z,21.30
2018-10-06T02:14:03.209Z,21.30
2018-10-06T02:14:40.518Z,21.30
2018-10-06T02:15:18.050Z,21.30
2018-10-06T02:15:55.404Z,21.30
2018-10-06T02:16:32.843Z,21.30
2018-10-06T02:17:10.129Z,21.30
2018-10-06T02:17:47.716Z,21.30
2018-10-06T02:18:25.084Z,21.30
2018-10-06T02:19:02.280Z,21.30
2018-10-06T02:19:39.761Z,21.30
2018-10-06T02:20:17.219Z,21.30
2018-10-06T02:20:54.530Z,21.30
2018-10-06T02:21:31.928Z,21.30
2018-10-06T02:22:09.142Z,21.30
2018-10-06T02:22:46.482Z,21.30
2018-10-06T02:23:23.801Z,21.30
2018-10-06T02:24:01.232Z,21.30
2018-10-06T02:24:38.590Z,21.30
2018-10-06T02:25:15.914Z,21.30
2018-10-06T02:26:35.720Z,21.30
2018-10-06T02:27:13.013Z,21.30
2018-10-06T02:27:50.644Z,21.30
2018-10-06T02:28:28.112Z,21.30
2018-10-06T02:29:05.413Z,21.30
2018-10-06T02:29:42.787Z,21.30
2018-10-06T02:30:20.168Z,21.30
2018-10-06T02:30:57.456Z,21.30
2018-10-06T02:31:34.842Z,21.30
2018-10-06T02:32:12.084Z,21.30
2018-10-06T02:32:49.555Z,21.30
2018-10-06T02:33:26.928Z,21.30
2018-10-06T02:34:04.193Z,21.30
2018-10-06T02:34:41.914Z,21.30
2018-10-06T02:35:19.222Z,21.30
2018-10-06T02:35:56.704Z,21.30
2018-10-06T02:36:34.063Z,21.30
2018-10-06T02:37:11.213Z,21.30
2018-10-06T02:37:48.608Z,21.30
2018-10-06T02:38:25.774Z,21.30
2018-10-06T02:39:02.984Z,21.30
2018-10-06T02:39:40.381Z,21.30
2018-10-06T02:40:17.566Z,21.30
2018-10-06T02:40:55.115Z,21.30
2018-10-06T02:41:35.665Z,21.30
2018-10-06T02:42:12.872Z,21.30
2018-10-06T02:42:50.245Z,21.30
2018-10-06T02:43:27.519Z,21.30
2018-10-06T02:44:04.773Z,21.30
2018-10-06T02:44:42.155Z,21.30
2018-10-06T02:45:19.584Z,21.30
2018-10-06T02:45:57.056Z,21.30
2018-10-06T02:46:34.725Z,21.30
2018-10-06T02:47:12.075Z,21.30
2018-10-06T02:47:49.638Z,21.30
2018-10-06T02:48:26.964Z,21.30
2018-10-06T02:49:04.425Z,21.30
2018-10-06T02:49:41.630Z,21.30
2018-10-06T02:50:18.851Z,21.30
2018-10-06T02:50:56.115Z,21.30
2018-10-06T02:51:33.524Z,21.30
2018-10-06T02:52:10.830Z,21.30
2018-10-06T02:52:48.233Z,21.30
2018-10-06T02:53:25.511Z,21.30
2018-10-06T02:54:02.956Z,21.30
2018-10-06T02:54:40.491Z,21.30
2018-10-06T02:55:17.719Z,21.30
2018-10-06T02:55:55.055Z,21.30
2018-10-06T02:56:32.421Z,21.30
2018-10-06T02:57:09.876Z,21.30
2018-10-06T02:57:47.309Z,21.30
2018-10-06T02:58:24.586Z,21.30
2018-10-06T02:59:02.022Z,21.30
2018-10-06T02:59:39.466Z,21.30
2018-10-06T03:00:20.631Z,21.30
2018-10-06T03:00:57.916Z,21.30
2018-10-06T03:01:35.226Z,21.30
2018-10-06T03:02:13.055Z,21.30
2018-10-06T03:02:50.301Z,21.30
2018-10-06T03:03:27.486Z,21.30
2018-10-06T03:04:04.676Z,21.30
2018-10-06T03:04:41.932Z,21.30
2018-10-06T03:06:01.085Z,21.30
2018-10-06T03:06:38.576Z,21.30
2018-10-06T03:07:16.086Z,21.30
2018-10-06T03:07:53.538Z,21.30
2018-10-06T03:08:30.987Z,21.30
2018-10-06T03:09:08.261Z,21.30
2018-10-06T03:09:45.663Z,21.30
2018-10-06T03:10:22.843Z,21.30
2018-10-06T03:11:04.107Z,21.30
2018-10-06T03:11:41.516Z,21.30
2018-10-06T03:12:18.776Z,21.30
2018-10-06T03:12:56.179Z,21.30
2018-10-06T03:13:33.675Z,21.30
2018-10-06T03:14:11.211Z,21.30
2018-10-06T03:14:48.793Z,21.30
2018-10-06T03:15:26.122Z,21.30
2018-10-06T03:16:06.866Z,21.30
2018-10-06T03:16:44.270Z,21.30
2018-10-06T03:17:21.677Z,21.30
2018-10-06T03:17:58.885Z,21.30
2018-10-06T03:18:36.233Z,21.30
2018-10-06T03:19:13.708Z,21.30
2018-10-06T03:19:51.157Z,21.20
2018-10-06T03:20:28.439Z,21.30
2018-10-06T03:21:05.929Z,21.30
2018-10-06T03:21:43.378Z,21.30
2018-10-06T03:22:20.707Z,21.30
2018-10-06T03:22:57.901Z,21.30
2018-10-06T03:23:35.321Z,21.30
2018-10-06T03:24:12.999Z,21.30
2018-10-06T03:24:50.399Z,21.30
2018-10-06T03:25:27.638Z,21.30
2018-10-06T03:26:05.050Z,21.30
2018-10-06T03:26:42.403Z,21.30
2018-10-06T03:27:19.804Z,21.30
2018-10-06T03:27:57.033Z,21.30
2018-10-06T03:28:34.513Z,21.30
2018-10-06T03:29:11.841Z,21.30
2018-10-06T03:29:49.123Z,21.30
2018-10-06T03:30:26.641Z,21.30
2018-10-06T03:31:04.146Z,21.30
2018-10-06T03:31:41.444Z,21.30
2018-10-06T03:32:18.801Z,21.30
2018-10-06T03:32:56.058Z,21.30
2018-10-06T03:33:33.372Z,21.30
2018-10-06T03:34:10.830Z,21.30
2018-10-06T03:34:48.314Z,21.30
2018-10-06T03:35:25.573Z,21.30
2018-10-06T03:36:02.987Z,21.30
2018-10-06T03:36:40.264Z,21.30
2018-10-06T03:37:17.726Z,21.30
2018-10-06T03:37:54.983Z,21.30
2018-10-06T03:38:32.343Z,21.30
2018-10-06T03:39:09.760Z,21.30
2018-10-06T03:39:46.984Z,21.30
2018-10-06T03:40:24.604Z,21.30
2018-10-06T03:41:02.135Z,21.30
2018-10-06T03:41:39.416Z,21.30
2018-10-06T03:42:16.617Z,21.30
2018-10-06T03:42:54.110Z,21.30
2018-10-06T03:43:31.527Z,21.30
2018-10-06T03:44:08.985Z,21.30
2018-10-06T03:44:46.362Z,21.30
2018-10-06T03:45:23.547Z,21.30
2018-10-06T03:46:00.770Z,21.30
2018-10-06T03:46:37.966Z,21.30
2018-10-06T03:47:15.495Z,21.30
2018-10-06T03:47:52.901Z,21.30
2018-10-06T03:48:30.216Z,21.30
2018-10-06T03:49:07.479Z,21.30
2018-10-06T03:49:45.018Z,21.30
2018-10-06T03:50:22.408Z,21.30
2018-10-06T03:50:59.835Z,21.30
2018-10-06T03:51:37.292Z,21.30
2018-10-06T03:52:14.848Z,21.30
2018-10-06T03:52:52.245Z,21.30
2018-10-06T03:53:29.765Z,21.30
2018-10-06T03:54:07.003Z,21.30
2018-10-06T03:54:44.532Z,21.30
2018-10-06T03:55:22.010Z,21.30
2018-10-06T03:55:59.490Z,21.30
2018-10-06T03:56:36.901Z,21.30
2018-10-06T03:57:17.704Z,21.30
2018-10-06T03:57:55.101Z,21.30
2018-10-06T03:58:32.348Z,21.30
2018-10-06T03:59:09.732Z,21.30
2018-10-06T03:59:47.068Z,21.30
2018-10-06T04:00:24.539Z,21.30
2018-10-06T04:01:01.931Z,21.30
2018-10-06T04:01:39.400Z,21.20
2018-10-06T04:02:16.890Z,21.30
2018-10-06T04:02:54.280Z,21.30
2018-10-06T04:03:31.669Z,21.30
2018-10-06T04:04:08.942Z,21.30
2018-10-06T04:04:46.430Z,21.30
2018-10-06T04:05:23.890Z,21.30
2018-10-06T04:06:01.460Z,21.30
2018-10-06T04:06:39.041Z,21.30
2018-10-06T04:07:59.317Z,21.30
2018-10-06T04:08:36.831Z,21.30
2018-10-06T04:09:14.322Z,21.30
2018-10-06T04:09:51.662Z,21.30
2018-10-06T04:10:29.122Z,21.30
2018-10-06T04:11:06.325Z,21.30
2018-10-06T04:11:43.561Z,21.30
2018-10-06T04:12:21.005Z,21.30
2018-10-06T04:12:58.456Z,21.30
2018-10-06T04:13:35.932Z,21.30
2018-10-06T04:14:13.453Z,21.30
2018-10-06T04:14:50.816Z,21.30
2018-10-06T04:15:28.162Z,21.30
2018-10-06T04:16:05.392Z,21.30
2018-10-06T04:16:42.579Z,21.30
2018-10-06T04:17:19.837Z,21.10
2018-10-06T04:17:57.043Z,21.30
2018-10-06T04:18:34.427Z,21.30
2018-10-06T04:19:11.867Z,21.30
2018-10-06T04:19:49.307Z,21.30
2018-10-06T04:20:26.815Z,21.30
2018-10-06T04:21:47.437Z,21.20
2018-10-06T04:22:25.267Z,21.30
2018-10-06T04:23:02.917Z,21.20
2018-10-06T04:23:40.404Z,21.30
2018-10-06T04:24:17.855Z,21.20
2018-10-06T04:24:55.339Z,21.20
2018-10-06T04:25:32.865Z,21.20
2018-10-06T04:26:46.894Z,21.30
2018-10-06T04:27:24.231Z,21.30
2018-10-06T04:28:01.665Z,21.30
2018-10-06T04:28:38.855Z,21.30
2018-10-06T04:29:16.116Z,21.30
2018-10-06T04:29:53.580Z,21.30
2018-10-06T04:30:31.022Z,21.30
2018-10-06T04:31:08.537Z,21.30
2018-10-06T04:31:45.955Z,21.30
2018-10-06T04:32:23.268Z,21.30
2018-10-06T04:33:00.775Z,21.20
2018-10-06T04:33:38.117Z,21.30
2018-10-06T04:34:15.316Z,21.30
2018-10-06T04:34:52.492Z,21.20
2018-10-06T04:35:29.718Z,21.20
2018-10-06T04:36:07.148Z,21.30
2018-10-06T04:36:44.536Z,21.20
2018-10-06T04:37:22.100Z,21.30
2018-10-06T04:37:59.410Z,21.20
2018-10-06T04:38:36.862Z,21.30
2018-10-06T04:39:14.477Z,21.30
2018-10-06T04:39:51.891Z,21.30
2018-10-06T04:40:29.151Z,21.30
2018-10-06T04:41:06.481Z,21.30
2018-10-06T04:41:43.818Z,21.30
2018-10-06T04:42:21.318Z,21.20
2018-10-06T04:42:58.567Z,21.30
2018-10-06T04:43:36.069Z,21.30
2018-10-06T04:44:13.558Z,21.20
2018-10-06T04:44:50.888Z,21.30
2018-10-06T04:45:28.124Z,21.30
2018-10-06T04:46:05.407Z,21.20
2018-10-06T04:46:42.805Z,21.30
2018-10-06T04:47:20.049Z,21.20
2018-10-06T04:47:57.528Z,21.20
2018-10-06T04:48:34.861Z,21.30
2018-10-06T04:49:12.079Z,21.30
2018-10-06T04:49:49.573Z,21.20
2018-10-06T04:50:27.136Z,21.20
2018-10-06T04:51:04.569Z,21.30
2018-10-06T04:51:41.990Z,21.20
2018-10-06T04:52:19.231Z,21.20
2018-10-06T04:52:56.534Z,21.30
2018-10-06T04:53:33.916Z,21.20
2018-10-06T04:54:11.459Z,21.20
2018-10-06T04:54:48.930Z,21.30
2018-10-06T04:55:26.446Z,21.30
2018-10-06T04:56:03.869Z,21.30
2018-10-06T04:56:41.120Z,21.20
2018-10-06T04:57:18.405Z,21.20
2018-10-06T04:57:55.640Z,21.20
2018-10-06T04:58:32.794Z,21.30
2018-10-06T04:59:10.073Z,21.20
2018-10-06T04:59:47.442Z,21.30
2018-10-06T05:00:24.800Z,21.20
2018-10-06T05:01:02.202Z,21.20
2018-10-06T05:01:39.375Z,21.20
2018-10-06T05:02:16.715Z,21.30
2018-10-06T05:02:54.060Z,21.30
2018-10-06T05:03:31.581Z,21.20
2018-10-06T05:04:09.042Z,21.20
2018-10-06T05:04:46.538Z,21.20
2018-10-06T05:05:24.021Z,21.20
2018-10-06T05:06:01.300Z,21.30
2018-10-06T05:06:38.742Z,21.30
2018-10-06T05:07:16.084Z,21.20
2018-10-06T05:07:53.507Z,21.20
2018-10-06T05:08:30.961Z,21.20
2018-10-06T05:09:08.302Z,21.30
2018-10-06T05:09:45.762Z,21.30
2018-10-06T05:10:23.167Z,21.20
2018-10-06T05:11:00.627Z,21.20
2018-10-06T05:11:38.004Z,21.30
2018-10-06T05:12:15.203Z,21.20
2018-10-06T05:12:52.614Z,21.20
2018-10-06T05:13:29.844Z,21.30
2018-10-06T05:14:07.075Z,21.30
2018-10-06T05:14:44.473Z,21.20
2018-10-06T05:15:21.645Z,21.30
2018-10-06T05:15:59.085Z,21.30
2018-10-06T05:16:36.213Z,21.20
2018-10-06T05:17:13.504Z,21.20
2018-10-06T05:17:50.976Z,21.20
2018-10-06T05:18:28.522Z,21.30
2018-10-06T05:19:05.942Z,21.30
2018-10-06T05:19:43.252Z,21.20
2018-10-06T05:20:20.513Z,21.20
2018-10-06T05:20:58.022Z,21.30
2018-10-06T05:21:35.632Z,21.20
2018-10-06T05:22:13.020Z,21.20
2018-10-06T05:22:50.283Z,21.30
2018-10-06T05:23:27.697Z,21.20
2018-10-06T05:24:05.126Z,21.20
2018-10-06T05:24:42.364Z,21.30
2018-10-06T05:25:19.820Z,21.20
2018-10-06T05:25:57.014Z,21.20
2018-10-06T05:26:34.253Z,21.30
2018-10-06T05:27:11.459Z,21.20
2018-10-06T05:27:48.675Z,21.30
2018-10-06T05:28:25.984Z,21.30
2018-10-06T05:29:03.376Z,21.20
2018-10-06T05:29:40.637Z,21.20
2018-10-06T05:30:17.849Z,21.30
2018-10-06T05:30:55.092Z,21.30
2018-10-06T05:31:32.282Z,21.30
2018-10-06T05:32:09.596Z,21.30
2018-10-06T05:32:47.195Z,21.30
2018-10-06T05:33:24.494Z,21.20
2018-10-06T05:34:03.538Z,21.30
2018-10-06T05:34:44.210Z,21.30
2018-10-06T05:35:21.906Z,21.20
2018-10-06T05:35:59.240Z,21.20
2018-10-06T05:36:36.666Z,21.30
2018-10-06T05:37:13.895Z,21.30
2018-10-06T05:37:51.279Z,21.20
2018-10-06T05:38:28.580Z,21.30
2018-10-06T05:39:05.984Z,21.20
2018-10-06T05:39:43.343Z,21.20
2018-10-06T05:40:20.755Z,21.30
2018-10-06T05:40:58.340Z,21.20
2018-10-06T05:41:35.761Z,21.30
2018-10-06T05:42:13.078Z,21.20
2018-10-06T05:42:50.394Z,21.30
2018-10-06T05:43:27.636Z,21.30
2018-10-06T05:44:05.034Z,21.20
2018-10-06T05:44:42.352Z,21.30
2018-10-06T05:45:19.861Z,21.20
2018-10-06T05:45:57.245Z,21.30
2018-10-06T05:46:34.473Z,21.20
2018-10-06T05:47:14.857Z,21.30
2018-10-06T05:47:52.307Z,21.20
2018-10-06T05:48:29.516Z,21.20
2018-10-06T05:49:07.044Z,21.20
2018-10-06T05:49:44.544Z,21.20
2018-10-06T05:50:22.269Z,21.30
2018-10-06T05:50:59.770Z,21.30
2018-10-06T05:51:37.290Z,21.30
2018-10-06T05:52:14.725Z,21.30
2018-10-06T05:52:52.086Z,21.30
2018-10-06T05:53:29.902Z,21.30
2018-10-06T05:54:07.356Z,21.30
2018-10-06T05:54:44.537Z,21.30
2018-10-06T05:55:21.853Z,21.20
2018-10-06T05:55:59.269Z,21.20
2018-10-06T05:57:19.407Z,21.30
2018-10-06T05:57:57.486Z,21.20
2018-10-06T05:58:34.799Z,21.20
2018-10-06T05:59:12.604Z,21.20
2018-10-06T05:59:50.013Z,21.30
2018-10-06T06:00:27.467Z,21.50
2018-10-06T06:01:04.669Z,21.20
2018-10-06T06:01:41.924Z,21.20
2018-10-06T06:02:22.800Z,21.30
2018-10-06T06:03:00.028Z,21.20
2018-10-06T06:03:37.430Z,21.20
2018-10-06T06:04:14.694Z,21.30
2018-10-06T06:04:52.252Z,21.20
2018-10-06T06:05:29.634Z,21.30
2018-10-06T06:06:06.953Z,21.30
2018-10-06T06:06:44.383Z,21.30
2018-10-06T06:07:21.992Z,21.30
2018-10-06T06:07:59.306Z,21.30
2018-10-06T06:08:36.574Z,21.30
2018-10-06T06:09:14.008Z,21.20
2018-10-06T06:09:51.220Z,21.30
2018-10-06T06:10:28.742Z,21.30
2018-10-06T06:11:06.156Z,21.30
2018-10-06T06:11:43.488Z,21.30
2018-10-06T06:12:20.787Z,21.20
2018-10-06T06:12:58.023Z,21.30
2018-10-06T06:13:35.590Z,21.30
2018-10-06T06:14:12.962Z,21.30
2018-10-06T06:14:50.436Z,21.30
2018-10-06T06:15:27.974Z,21.30
2018-10-06T06:16:05.223Z,21.30
2018-10-06T06:16:42.476Z,21.30
2018-10-06T06:17:19.856Z,21.30
2018-10-06T06:17:57.262Z,21.30
2018-10-06T06:18:34.729Z,21.30
2018-10-06T06:19:11.970Z,21.30
2018-10-06T06:19:49.355Z,21.30
2018-10-06T06:20:26.598Z,21.30
2018-10-06T06:21:03.997Z,21.30
2018-10-06T06:21:41.539Z,21.30
2018-10-06T06:22:18.901Z,21.30
2018-10-06T06:22:56.378Z,21.30
2018-10-06T06:23:33.788Z,21.30
2018-10-06T06:24:10.982Z,21.30
2018-10-06T06:24:48.317Z,21.30
2018-10-06T06:25:25.731Z,21.30
2018-10-06T06:26:03.182Z,21.30
2018-10-06T06:26:40.458Z,21.30
2018-10-06T06:27:17.910Z,20.80
2018-10-06T06:27:55.375Z,21.30
2018-10-06T06:28:32.804Z,21.30
2018-10-06T06:29:10.308Z,21.30
2018-10-06T06:29:47.744Z,21.30
2018-10-06T06:30:24.981Z,21.30
2018-10-06T06:31:02.417Z,21.30
2018-10-06T06:31:39.708Z,21.30
2018-10-06T06:32:16.997Z,21.30
2018-10-06T06:32:54.368Z,21.30
2018-10-06T06:33:31.549Z,21.30
2018-10-06T06:34:08.773Z,21.30
2018-10-06T06:34:46.056Z,21.30
2018-10-06T06:35:23.481Z,21.30
2018-10-06T06:36:00.798Z,21.30
2018-10-06T06:36:38.254Z,21.30
2018-10-06T06:37:15.457Z,21.30
2018-10-06T06:37:52.976Z,21.30
2018-10-06T06:38:30.442Z,21.30
2018-10-06T06:39:07.867Z,21.30
2018-10-06T06:39:45.339Z,21.30
2018-10-06T06:40:22.818Z,21.40
2018-10-06T06:41:00.426Z,21.30
2018-10-06T06:41:37.814Z,21.30
2018-10-06T06:42:15.006Z,21.40
2018-10-06T06:42:52.296Z,21.40
2018-10-06T06:43:29.815Z,21.40
2018-10-06T06:44:07.236Z,21.40
2018-10-06T06:44:44.597Z,21.40
2018-10-06T06:45:22.104Z,21.40
2018-10-06T06:45:59.557Z,21.40
2018-10-06T06:46:36.978Z,21.40
2018-10-06T06:47:14.197Z,21.40
2018-10-06T06:47:55.336Z,21.40
2018-10-06T06:48:32.702Z,21.40
2018-10-06T06:49:10.101Z,21.40
2018-10-06T06:49:47.281Z,21.40
2018-10-06T06:50:24.490Z,21.40
2018-10-06T06:51:01.820Z,21.40
2018-10-06T06:51:39.150Z,21.40
2018-10-06T06:52:16.579Z,21.40
2018-10-06T06:52:57.713Z,21.40
2018-10-06T06:53:34.914Z,21.40
2018-10-06T06:54:12.209Z,21.40
2018-10-06T06:54:49.520Z,21.40
2018-10-06T06:55:26.966Z,21.40
2018-10-06T06:56:04.359Z,21.40
2018-10-06T06:56:41.538Z,21.40
2018-10-06T06:57:18.777Z,21.50
2018-10-06T06:57:56.180Z,21.50
2018-10-06T06:58:33.345Z,21.50
2018-10-06T06:59:10.608Z,21.50
2018-10-06T06:59:48.047Z,21.50
2018-10-06T07:00:25.609Z,21.50
2018-10-06T07:01:02.942Z,21.60
2018-10-06T07:01:40.221Z,21.60
2018-10-06T07:02:17.569Z,21.60
2018-10-06T07:02:54.889Z,21.60
2018-10-06T07:03:32.256Z,21.60
2018-10-06T07:04:09.807Z,21.60
2018-10-06T07:04:47.129Z,21.60
2018-10-06T07:05:24.319Z,21.60
2018-10-06T07:06:01.632Z,21.60
2018-10-06T07:06:39.155Z,21.60
2018-10-06T07:07:16.452Z,21.60
2018-10-06T07:07:53.952Z,21.60
2018-10-06T07:08:31.335Z,21.60
2018-10-06T07:09:08.613Z,21.60
2018-10-06T07:09:45.952Z,21.60
2018-10-06T07:10:23.162Z,21.60
2018-10-06T07:11:00.634Z,21.60
2018-10-06T07:11:37.843Z,21.60
2018-10-06T07:12:15.021Z,21.60
2018-10-06T07:12:52.292Z,21.60
2018-10-06T07:13:29.792Z,21.60
2018-10-06T07:14:07.198Z,21.50
2018-10-06T07:14:44.684Z,21.60
2018-10-06T07:15:22.135Z,21.60
2018-10-06T07:15:59.555Z,21.60
2018-10-06T07:16:37.114Z,21.60
2018-10-06T07:17:14.634Z,21.50
2018-10-06T07:17:52.035Z,21.60
2018-10-06T07:18:29.553Z,21.50
2018-10-06T07:19:06.844Z,21.50
2018-10-06T07:19:44.254Z,21.50
2018-10-06T07:20:21.701Z,21.50
2018-10-06T07:20:58.885Z,21.50
2018-10-06T07:21:36.114Z,21.50
2018-10-06T07:22:13.616Z,21.50
2018-10-06T07:22:51.000Z,21.50
2018-10-06T07:23:28.485Z,21.50
2018-10-06T07:24:05.947Z,21.50
2018-10-06T07:24:43.349Z,21.50
2018-10-06T07:25:20.621Z,21.50
2018-10-06T07:25:57.906Z,21.50
2018-10-06T07:26:35.415Z,21.50
2018-10-06T07:27:12.917Z,21.50
2018-10-06T07:27:50.207Z,21.50
2018-10-06T07:28:27.401Z,21.50
2018-10-06T07:29:04.839Z,21.50
2018-10-06T07:29:42.267Z,21.50
2018-10-06T07:30:19.681Z,21.50
2018-10-06T07:30:57.147Z,21.50
2018-10-06T07:31:34.524Z,21.50
2018-10-06T07:32:12.089Z,21.50
2018-10-06T07:32:49.430Z,21.50
2018-10-06T07:33:26.704Z,21.50
2018-10-06T07:34:04.068Z,21.50
2018-10-06T07:34:41.688Z,21.50
2018-10-06T07:35:19.128Z,21.50
2018-10-06T07:35:56.729Z,21.50
2018-10-06T07:36:34.139Z,21.50
2018-10-06T07:37:11.379Z,21.50
2018-10-06T07:37:48.942Z,21.50
2018-10-06T07:38:26.310Z,21.50
2018-10-06T07:39:03.670Z,21.50
2018-10-06T07:39:41.102Z,21.50
2018-10-06T07:40:18.517Z,21.60
2018-10-06T07:40:55.721Z,21.60
2018-10-06T07:41:33.115Z,21.60
2018-10-06T07:42:10.580Z,21.60
2018-10-06T07:42:47.951Z,21.60
2018-10-06T07:43:25.331Z,21.60
2018-10-06T07:44:03.280Z,21.60
2018-10-06T07:44:40.713Z,21.60
2018-10-06T07:45:18.256Z,21.60
2018-10-06T07:45:55.761Z,21.60
2018-10-06T07:46:33.124Z,21.70
2018-10-06T07:47:10.601Z,21.70
2018-10-06T07:47:47.997Z,21.70
2018-10-06T07:48:25.555Z,21.70
2018-10-06T07:49:03.042Z,21.80
2018-10-06T07:49:40.593Z,21.80
2018-10-06T07:50:17.965Z,21.80
2018-10-06T07:50:55.513Z,21.80
2018-10-06T07:51:32.758Z,21.80
2018-10-06T07:52:10.223Z,21.80
2018-10-06T07:53:31.546Z,21.80
2018-10-06T07:54:08.904Z,21.80
2018-10-06T07:54:46.323Z,21.80
2018-10-06T07:55:23.925Z,21.80
2018-10-06T07:56:01.330Z,21.80
2018-10-06T07:56:38.698Z,21.90
2018-10-06T07:57:16.166Z,21.90
2018-10-06T07:57:53.525Z,21.90
2018-10-06T07:59:13.713Z,21.90
2018-10-06T07:59:51.222Z,21.90
2018-10-06T08:00:28.632Z,21.90
2018-10-06T08:01:06.018Z,21.90
2018-10-06T08:01:43.595Z,21.90
2018-10-06T08:02:21.026Z,21.90
2018-10-06T08:02:58.456Z,21.90
2018-10-06T08:03:35.924Z,21.90
2018-10-06T08:04:13.438Z,22.00
2018-10-06T08:04:50.765Z,21.90
2018-10-06T08:05:28.317Z,21.90
2018-10-06T08:06:05.594Z,22.00
2018-10-06T08:06:42.980Z,22.00
2018-10-06T08:07:20.244Z,22.00
2018-10-06T08:07:57.671Z,22.00
2018-10-06T08:08:35.338Z,22.00
2018-10-06T08:09:12.822Z,22.00